createdAt,value
2023-03-11T00:00:41.441Z,113.40
2023-03-11T00:01:41.462Z,117.10
2023-03-11T00:02:41.404Z,119.40
2023-03-11T00:03:41.402Z,107.80
2023-03-11T00:04:41.393Z,90.20
2023-03-11T00:05:41.501Z,89.50
2023-03-11T00:06:41.368Z,79.50
2023-03-11T00:07:41.353Z,79.10
2023-03-11T00:08:41.363Z,122.20
2023-03-11T00:09:41.347Z,123.40
2023-03-11T00:10:41.342Z,66.00
2023-03-11T00:11:41.320Z,94.50
2023-03-11T00:12:41.309Z,102.80
2023-03-11T00:13:41.311Z,68.70
2023-03-11T00:14:41.301Z,127.70
2023-03-11T00:15:41.288Z,131.00
2023-03-11T00:16:41.340Z,86.00
2023-03-11T00:17:41.261Z,112.80
2023-03-11T00:18:41.253Z,73.60
2023-03-11T00:19:41.239Z,114.60
2023-03-11T00:20:41.246Z,69.20
2023-03-11T00:21:41.218Z,62.50
2023-03-11T00:22:41.211Z,101.80
2023-03-11T00:23:41.201Z,77.40
2023-03-11T00:24:41.193Z,84.80
2023-03-11T00:25:41.201Z,79.40
2023-03-11T00:26:41.174Z,105.10
2023-03-11T00:27:41.156Z,85.50
2023-03-11T00:28:41.179Z,67.30
2023-03-11T00:29:41.137Z,87.70
2023-03-11T00:30:41.186Z,89.50
2023-03-11T00:31:41.118Z,87.50
2023-03-11T00:32:41.171Z,86.40
2023-03-11T00:33:41.108Z,77.50
2023-03-11T00:34:41.096Z,95.50
2023-03-11T00:35:41.205Z,102.50
2023-03-11T00:36:41.077Z,65.40
2023-03-11T00:37:41.062Z,107.20
2023-03-11T00:38:41.135Z,77.70
2023-03-11T00:39:41.042Z,70.70
2023-03-11T00:40:41.057Z,58.20
2023-03-11T00:41:41.030Z,94.30
2023-03-11T00:42:41.014Z,143.60
2023-03-11T00:43:41.003Z,106.60
2023-03-11T00:44:41.004Z,90.70
2023-03-11T00:45:41.008Z,125.70
2023-03-11T00:46:40.982Z,99.10
2023-03-11T00:47:40.964Z,84.60
2023-03-11T00:48:40.959Z,102.30
2023-03-11T00:49:40.942Z,87.20
2023-03-11T00:50:40.953Z,98.50
2023-03-11T00:51:40.925Z,89.80
2023-03-11T00:52:40.920Z,80.50
2023-03-11T00:53:40.908Z,74.20
2023-03-11T00:54:40.900Z,71.90
2023-03-11T00:55:40.908Z,77.90
2023-03-11T00:56:40.888Z,81.80
2023-03-11T00:57:40.864Z,117.10
2023-03-11T00:58:40.862Z,109.40
2023-03-11T00:59:40.849Z,65.30
2023-03-11T01:00:40.862Z,90.40
2023-03-11T01:01:40.892Z,98.80
2023-03-11T01:02:40.817Z,95.80
2023-03-11T01:03:40.807Z,120.00
2023-03-11T01:04:40.885Z,108.60
2023-03-11T01:05:40.809Z,68.00
2023-03-11T01:06:45.610Z,86.00
2023-03-11T01:07:40.775Z,82.30
2023-03-11T01:08:40.773Z,83.90
2023-03-11T01:09:40.753Z,89.00
2023-03-11T01:10:40.747Z,115.10
2023-03-11T01:11:40.732Z,72.60
2023-03-11T01:12:40.721Z,98.60
2023-03-11T01:13:40.738Z,96.50
2023-03-11T01:14:40.700Z,102.40
2023-03-11T01:15:40.706Z,68.00
2023-03-11T01:16:40.684Z,132.90
2023-03-11T01:17:40.670Z,79.70
2023-03-11T01:18:40.662Z,97.20
2023-03-11T01:19:40.673Z,107.00
2023-03-11T01:20:40.651Z,111.60
2023-03-11T01:21:40.626Z,95.80
2023-03-11T01:22:40.618Z,99.60
2023-03-11T01:23:40.607Z,71.30
2023-03-11T01:24:40.618Z,99.50
2023-03-11T01:25:40.611Z,69.90
2023-03-11T01:26:40.583Z,70.10
2023-03-11T01:27:40.566Z,94.30
2023-03-11T01:28:40.565Z,61.00
2023-03-11T01:29:40.558Z,79.80
2023-03-11T01:30:40.564Z,104.50
2023-03-11T01:31:40.526Z,85.10
2023-03-11T01:32:40.578Z,102.10
2023-03-11T01:33:40.510Z,105.30
2023-03-11T01:34:40.511Z,84.10
2023-03-11T01:35:40.557Z,98.50
2023-03-11T01:36:40.480Z,72.10
2023-03-11T01:37:40.469Z,92.40
2023-03-11T01:38:40.468Z,80.20
2023-03-11T01:39:40.454Z,102.50
2023-03-11T01:40:40.476Z,71.70
2023-03-11T01:41:40.431Z,112.80
2023-03-11T01:42:40.427Z,66.90
2023-03-11T01:43:40.413Z,84.80
2023-03-11T01:44:40.414Z,111.50
2023-03-11T01:45:40.397Z,86.00
2023-03-11T01:46:40.449Z,94.90
2023-03-11T01:47:40.374Z,86.10
2023-03-11T01:48:40.360Z,90.50
2023-03-11T01:49:40.366Z,106.50
2023-03-11T01:50:40.383Z,106.70
2023-03-11T01:51:40.326Z,85.30
2023-03-11T01:52:40.329Z,89.70
2023-03-11T01:53:40.307Z,91.40
2023-03-11T01:54:40.324Z,81.90
2023-03-11T01:55:40.322Z,75.60
2023-03-11T01:56:40.308Z,118.10
2023-03-11T01:57:40.270Z,92.20
2023-03-11T01:58:40.260Z,100.00
2023-03-11T01:59:40.248Z,111.60
2023-03-11T02:00:40.281Z,72.40
2023-03-11T02:01:40.336Z,121.60
2023-03-11T02:02:40.258Z,69.80
2023-03-11T02:03:40.211Z,103.80
2023-03-11T02:04:40.201Z,109.30
2023-03-11T02:05:40.226Z,70.60
2023-03-11T02:06:40.194Z,109.60
2023-03-11T02:07:40.168Z,92.50
2023-03-11T02:08:40.163Z,86.50
2023-03-11T02:09:40.159Z,86.80
2023-03-11T02:10:40.147Z,130.90
2023-03-11T02:11:40.145Z,87.20
2023-03-11T02:12:40.126Z,85.30
2023-03-11T02:13:40.119Z,90.70
2023-03-11T02:14:40.106Z,82.00
2023-03-11T02:15:40.294Z,74.90
2023-03-11T02:16:40.103Z,70.80
2023-03-11T02:17:40.073Z,83.70
2023-03-11T02:18:40.071Z,103.80
2023-03-11T02:19:40.066Z,93.70
2023-03-11T02:20:40.049Z,81.60
2023-03-11T02:21:40.073Z,101.60
2023-03-11T02:22:40.040Z,75.40
2023-03-11T02:23:40.036Z,122.50
2023-03-11T02:24:40.039Z,106.40
2023-03-11T02:25:39.998Z,103.40
2023-03-11T02:26:40.027Z,73.90
2023-03-11T02:27:39.979Z,103.00
2023-03-11T02:28:39.985Z,98.40
2023-03-11T02:29:39.961Z,85.20
2023-03-11T02:30:39.958Z,95.50
2023-03-11T02:31:42.546Z,91.40
2023-03-11T02:32:39.953Z,89.50
2023-03-11T02:33:39.925Z,104.50
2023-03-11T02:34:39.915Z,90.90
2023-03-11T02:35:39.927Z,88.70
2023-03-11T02:36:39.914Z,108.40
2023-03-11T02:37:39.885Z,98.40
2023-03-11T02:38:39.881Z,132.50
2023-03-11T02:39:39.863Z,90.30
2023-03-11T02:40:39.859Z,89.40
2023-03-11T02:41:39.867Z,103.40
2023-03-11T02:42:39.839Z,106.80
2023-03-11T02:43:39.824Z,98.00
2023-03-11T02:44:39.814Z,106.30
2023-03-11T02:45:39.806Z,120.00
2023-03-11T02:46:39.834Z,116.40
2023-03-11T02:47:39.781Z,69.20
2023-03-11T02:48:39.774Z,105.60
2023-03-11T02:49:39.752Z,83.80
2023-03-11T02:50:39.752Z,99.70
2023-03-11T02:51:39.772Z,94.60
2023-03-11T02:52:39.734Z,105.00
2023-03-11T02:53:39.717Z,104.70
2023-03-11T02:54:39.712Z,102.70
2023-03-11T02:55:39.699Z,86.20
2023-03-11T02:56:39.719Z,111.10
2023-03-11T02:57:39.680Z,73.30
2023-03-11T02:58:39.680Z,96.80
2023-03-11T02:59:39.668Z,109.00
2023-03-11T03:00:39.668Z,108.50
2023-03-11T03:01:39.657Z,95.90
2023-03-11T03:02:39.631Z,77.60
2023-03-11T03:03:39.615Z,77.20
2023-03-11T03:04:39.612Z,66.50
2023-03-11T03:05:39.598Z,128.20
2023-03-11T03:06:39.616Z,105.30
2023-03-11T03:07:39.672Z,107.50
2023-03-11T03:08:39.577Z,97.20
2023-03-11T03:09:39.568Z,82.00
2023-03-11T03:10:39.569Z,89.80
2023-03-11T03:11:39.543Z,106.00
2023-03-11T03:12:39.534Z,65.20
2023-03-11T03:13:39.526Z,124.30
2023-03-11T03:14:39.517Z,76.30
2023-03-11T03:15:39.514Z,89.50
2023-03-11T03:16:39.629Z,101.30
2023-03-11T03:17:39.574Z,104.50
2023-03-11T03:18:39.474Z,86.50
2023-03-11T03:19:39.469Z,113.10
2023-03-11T03:20:39.447Z,106.20
2023-03-11T03:21:39.497Z,88.50
2023-03-11T03:22:39.430Z,81.10
2023-03-11T03:23:39.424Z,102.20
2023-03-11T03:24:39.412Z,105.40
2023-03-11T03:25:39.419Z,118.90
2023-03-11T03:26:39.415Z,87.70
2023-03-11T03:27:39.393Z,87.90
2023-03-11T03:28:39.390Z,75.20
2023-03-11T03:29:39.371Z,92.50
2023-03-11T03:30:39.359Z,109.90
2023-03-11T03:31:39.417Z,97.50
2023-03-11T03:32:39.413Z,122.00
2023-03-11T03:33:39.329Z,83.60
2023-03-11T03:34:39.314Z,71.70
2023-03-11T03:35:39.326Z,93.60
2023-03-11T03:36:39.318Z,100.60
2023-03-11T03:37:39.293Z,71.60
2023-03-11T03:38:39.275Z,67.10
2023-03-11T03:39:39.272Z,114.40
2023-03-11T03:40:39.270Z,56.50
2023-03-11T03:41:39.282Z,92.50
2023-03-11T03:42:39.252Z,61.00
2023-03-11T03:43:39.234Z,92.00
2023-03-11T03:44:39.216Z,95.40
2023-03-11T03:45:39.260Z,102.90
2023-03-11T03:46:39.219Z,96.30
2023-03-11T03:47:39.196Z,98.60
2023-03-11T03:48:39.179Z,85.80
2023-03-11T03:49:39.177Z,60.70
2023-03-11T03:50:39.180Z,108.40
2023-03-11T03:51:39.171Z,76.50
2023-03-11T03:52:39.146Z,70.20
2023-03-11T03:53:39.139Z,75.70
2023-03-11T03:54:39.127Z,97.60
2023-03-11T03:55:39.119Z,55.70
2023-03-11T03:56:39.121Z,103.50
2023-03-11T03:57:39.101Z,75.50
2023-03-11T03:58:39.094Z,100.40
2023-03-11T03:59:39.083Z,79.60
2023-03-11T04:00:39.068Z,115.70
2023-03-11T04:01:39.096Z,63.90
2023-03-11T04:02:39.112Z,86.30
2023-03-11T04:03:39.164Z,75.60
2023-03-11T04:04:39.029Z,81.30
2023-03-11T04:05:39.036Z,53.00
2023-03-11T04:06:39.028Z,84.50
2023-03-11T04:07:39.011Z,71.00
2023-03-11T04:08:38.989Z,56.90
2023-03-11T04:09:38.998Z,81.00
2023-03-11T04:10:38.970Z,81.50
2023-03-11T04:11:38.984Z,69.30
2023-03-11T04:12:38.958Z,107.70
2023-03-11T04:13:38.953Z,75.50
2023-03-11T04:14:38.937Z,93.50
2023-03-11T04:15:38.932Z,77.30
2023-03-11T04:16:38.987Z,97.70
2023-03-11T04:17:38.912Z,90.90
2023-03-11T04:18:38.895Z,66.30
2023-03-11T04:19:38.895Z,80.20
2023-03-11T04:20:38.880Z,88.30
2023-03-11T04:21:38.897Z,68.60
2023-03-11T04:22:38.857Z,70.90
2023-03-11T04:23:38.855Z,70.00
2023-03-11T04:24:38.839Z,70.10
2023-03-11T04:25:38.834Z,67.30
2023-03-11T04:26:38.829Z,89.30
2023-03-11T04:27:38.806Z,109.80
2023-03-11T04:28:38.801Z,90.50
2023-03-11T04:29:38.795Z,59.30
2023-03-11T04:30:38.876Z,61.00
2023-03-11T04:31:38.781Z,70.90
2023-03-11T04:32:38.775Z,87.90
2023-03-11T04:33:38.749Z,63.10
2023-03-11T04:34:38.750Z,86.80
2023-03-11T04:35:38.771Z,79.40
2023-03-11T04:36:38.749Z,78.40
2023-03-11T04:37:38.706Z,71.30
2023-03-11T04:38:38.698Z,90.20
2023-03-11T04:39:38.694Z,71.90
2023-03-11T04:40:38.680Z,85.50
2023-03-11T04:41:38.690Z,84.30
2023-03-11T04:42:38.654Z,74.90
2023-03-11T04:43:38.659Z,83.40
2023-03-11T04:44:38.634Z,66.10
2023-03-11T04:45:38.628Z,69.00
2023-03-11T04:46:38.641Z,72.20
2023-03-11T04:47:38.621Z,73.30
2023-03-11T04:48:38.596Z,69.00
2023-03-11T04:49:38.595Z,85.90
2023-03-11T04:50:38.580Z,61.50
2023-03-11T04:51:38.574Z,72.40
2023-03-11T04:52:38.566Z,89.20
2023-03-11T04:53:38.550Z,57.90
2023-03-11T04:54:38.555Z,66.00
2023-03-11T04:55:38.537Z,67.40
2023-03-11T04:56:38.516Z,85.90
2023-03-11T04:57:38.534Z,65.70
2023-03-11T04:58:38.492Z,74.20
2023-03-11T04:59:38.493Z,67.40
2023-03-11T05:00:38.482Z,63.40
2023-03-11T05:01:38.592Z,94.90
2023-03-11T05:02:38.487Z,78.00
2023-03-11T05:03:38.452Z,87.10
2023-03-11T05:04:38.454Z,54.80
2023-03-11T05:05:38.438Z,90.60
2023-03-11T05:06:38.419Z,95.80
2023-03-11T05:07:38.444Z,94.50
2023-03-11T05:08:38.401Z,90.00
2023-03-11T05:09:38.401Z,60.10
2023-03-11T05:10:38.378Z,73.60
2023-03-11T05:11:38.378Z,80.30
2023-03-11T05:12:38.424Z,73.80
2023-03-11T05:13:38.352Z,56.60
2023-03-11T05:14:38.339Z,75.90
2023-03-11T05:15:38.396Z,85.80
2023-03-11T05:16:38.336Z,67.70
2023-03-11T05:17:38.332Z,75.00
2023-03-11T05:18:38.301Z,92.70
2023-03-11T05:19:38.296Z,99.10
2023-03-11T05:20:38.229Z,96.10
2023-03-11T05:21:38.232Z,80.90
2023-03-11T05:22:38.221Z,66.10
2023-03-11T05:23:38.212Z,82.80
2023-03-11T05:24:38.191Z,82.90
2023-03-11T05:25:38.196Z,77.70
2023-03-11T05:26:38.167Z,80.70
2023-03-11T05:27:38.203Z,70.30
2023-03-11T05:28:38.152Z,71.40
2023-03-11T05:29:38.151Z,88.30
2023-03-11T05:30:38.137Z,80.90
2023-03-11T05:31:38.162Z,79.30
2023-03-11T05:32:38.189Z,85.10
2023-03-11T05:33:38.112Z,79.20
2023-03-11T05:34:38.104Z,64.80
2023-03-11T05:35:38.185Z,102.10
2023-03-11T05:36:38.071Z,81.90
2023-03-11T05:37:38.085Z,98.30
2023-03-11T05:38:38.058Z,74.10
2023-03-11T05:39:38.050Z,77.50
2023-03-11T05:40:38.041Z,80.60
2023-03-11T05:41:38.038Z,88.50
2023-03-11T05:42:38.048Z,74.80
2023-03-11T05:43:38.041Z,91.00
2023-03-11T05:44:38.001Z,73.00
2023-03-11T05:45:38.002Z,65.80
2023-03-11T05:46:38.049Z,63.80
2023-03-11T05:47:37.997Z,77.90
2023-03-11T05:48:37.962Z,62.70
2023-03-11T05:49:37.963Z,77.00
2023-03-11T05:50:37.955Z,52.60
2023-03-11T05:51:37.940Z,67.00
2023-03-11T05:52:37.943Z,77.20
2023-03-11T05:53:37.928Z,72.80
2023-03-11T05:54:37.913Z,65.70
2023-03-11T05:55:37.900Z,59.00
2023-03-11T05:56:37.888Z,55.80
2023-03-11T05:57:37.891Z,82.30
2023-03-11T05:58:37.884Z,71.30
2023-03-11T05:59:37.915Z,63.40
2023-03-11T06:00:37.866Z,73.60
2023-03-11T06:01:37.842Z,53.70
2023-03-11T06:02:37.849Z,64.10
2023-03-11T06:03:37.862Z,58.80
2023-03-11T06:04:38.023Z,58.80
2023-03-11T06:05:37.808Z,74.20
2023-03-11T06:06:37.783Z,61.40
2023-03-11T06:07:37.803Z,62.80
2023-03-11T06:08:37.784Z,52.80
2023-03-11T06:09:37.764Z,50.90
2023-03-11T06:10:37.752Z,51.10
2023-03-11T06:11:37.744Z,55.10
2023-03-11T06:12:37.738Z,50.10
2023-03-11T06:13:37.724Z,60.10
2023-03-11T06:14:37.706Z,54.50
2023-03-11T06:15:37.720Z,50.20
2023-03-11T06:16:37.714Z,51.40
2023-03-11T06:17:37.706Z,47.10
2023-03-11T06:18:37.670Z,44.60
2023-03-11T06:19:37.665Z,48.60
2023-03-11T06:20:37.648Z,65.00
2023-03-11T06:21:37.648Z,62.90
2023-03-11T06:22:40.051Z,58.00
2023-03-11T06:23:37.631Z,44.20
2023-03-11T06:24:37.607Z,66.60
2023-03-11T06:25:37.606Z,49.00
2023-03-11T06:26:37.607Z,60.90
2023-03-11T06:27:37.662Z,48.40
2023-03-11T06:28:37.573Z,54.30
2023-03-11T06:29:37.567Z,65.40
2023-03-11T06:30:37.552Z,64.00
2023-03-11T06:31:37.712Z,58.70
2023-03-11T06:32:37.650Z,55.90
2023-03-11T06:33:37.524Z,58.30
2023-03-11T06:34:37.517Z,46.70
2023-03-11T06:35:37.582Z,52.50
2023-03-11T06:36:37.498Z,64.50
2023-03-11T06:37:37.531Z,47.90
2023-03-11T06:38:37.570Z,70.40
2023-03-11T06:39:37.468Z,58.60
2023-03-11T06:40:37.449Z,66.90
2023-03-11T06:41:37.461Z,70.60
2023-03-11T06:42:37.466Z,65.70
2023-03-11T06:43:37.434Z,75.10
2023-03-11T06:44:37.410Z,68.60
2023-03-11T06:45:37.446Z,63.90
2023-03-11T06:46:37.394Z,64.20
2023-03-11T06:47:37.451Z,63.40
2023-03-11T06:48:37.370Z,49.90
2023-03-11T06:49:37.367Z,71.80
2023-03-11T06:50:37.360Z,72.10
2023-03-11T06:51:37.378Z,66.10
2023-03-11T06:52:37.352Z,64.90
2023-03-11T06:53:37.343Z,67.00
2023-03-11T06:54:37.311Z,53.60
2023-03-11T06:55:37.314Z,61.70
2023-03-11T06:56:37.296Z,72.20
2023-03-11T06:57:37.305Z,82.00
2023-03-11T06:58:37.291Z,89.10
2023-03-11T06:59:37.268Z,65.00
2023-03-11T07:00:37.271Z,83.20
2023-03-11T07:01:37.257Z,61.80
2023-03-11T07:02:37.255Z,75.10
2023-03-11T07:03:37.277Z,64.00
2023-03-11T07:04:37.218Z,60.50
2023-03-11T07:05:37.213Z,66.30
2023-03-11T07:06:37.207Z,61.30
2023-03-11T07:07:37.347Z,61.50
2023-03-11T07:08:37.184Z,76.40
2023-03-11T07:09:37.171Z,55.50
2023-03-11T07:10:37.163Z,50.20
2023-03-11T07:11:37.156Z,61.10
2023-03-11T07:12:37.167Z,66.90
2023-03-11T07:13:37.143Z,70.80
2023-03-11T07:14:37.120Z,49.50
2023-03-11T07:15:37.112Z,55.10
2023-03-11T07:16:37.096Z,58.90
2023-03-11T07:17:37.121Z,42.50
2023-03-11T07:18:37.081Z,56.90
2023-03-11T07:19:37.077Z,46.90
2023-03-11T07:20:37.070Z,53.90
2023-03-11T07:21:37.057Z,59.70
2023-03-11T07:22:37.060Z,53.00
2023-03-11T07:23:37.040Z,44.70
2023-03-11T07:24:37.028Z,48.40
2023-03-11T07:25:37.014Z,64.30
2023-03-11T07:26:37.003Z,49.60
2023-03-11T07:27:37.030Z,54.20
2023-03-11T07:28:36.981Z,61.20
2023-03-11T07:29:36.979Z,52.50
2023-03-11T07:30:36.960Z,52.00
2023-03-11T07:31:37.054Z,45.60
2023-03-11T07:32:36.977Z,40.10
2023-03-11T07:33:36.931Z,37.90
2023-03-11T07:34:36.928Z,38.40
2023-03-11T07:35:36.937Z,39.10
2023-03-11T07:36:36.907Z,52.50
2023-03-11T07:37:36.904Z,43.40
2023-03-11T07:38:36.887Z,42.60
2023-03-11T07:39:36.876Z,43.20
2023-03-11T07:40:36.870Z,44.00
2023-03-11T07:41:36.853Z,39.60
2023-03-11T07:42:36.852Z,47.00
2023-03-11T07:43:36.948Z,46.90
2023-03-11T07:44:36.836Z,46.30
2023-03-11T07:45:36.813Z,46.40
2023-03-11T07:46:36.817Z,35.50
2023-03-11T07:47:36.801Z,33.60
2023-03-11T07:48:36.790Z,47.00
2023-03-11T07:49:36.770Z,35.00
2023-03-11T07:50:36.765Z,35.00
2023-03-11T07:51:36.757Z,40.80
2023-03-11T07:52:36.754Z,39.70
2023-03-11T07:53:36.748Z,53.10
2023-03-11T07:54:36.728Z,50.70
2023-03-11T07:55:36.716Z,42.10
2023-03-11T07:56:36.714Z,34.10
2023-03-11T07:57:36.729Z,40.00
2023-03-11T07:58:36.702Z,48.80
2023-03-11T07:59:36.671Z,33.80
2023-03-11T08:00:36.668Z,60.50
2023-03-11T08:01:36.860Z,52.30
2023-03-11T08:02:36.700Z,35.70
2023-03-11T08:03:36.648Z,58.30
2023-03-11T08:04:36.626Z,43.50
2023-03-11T08:05:36.611Z,38.90
2023-03-11T08:06:36.609Z,38.80
2023-03-11T08:07:36.589Z,46.00
2023-03-11T08:08:36.603Z,43.00
2023-03-11T08:09:36.570Z,55.70
2023-03-11T08:10:36.564Z,59.80
2023-03-11T08:11:36.557Z,64.30
2023-03-11T08:12:36.545Z,72.40
2023-03-11T08:13:36.606Z,62.00
2023-03-11T08:14:36.535Z,47.60
2023-03-11T08:15:36.523Z,41.80
2023-03-11T08:16:36.507Z,43.40
2023-03-11T08:17:36.490Z,56.00
2023-03-11T08:18:36.510Z,61.90
2023-03-11T08:19:36.477Z,51.40
2023-03-11T08:20:36.465Z,45.50
2023-03-11T08:21:36.453Z,52.90
2023-03-11T08:22:39.481Z,41.40
2023-03-11T08:23:36.447Z,60.80
2023-03-11T08:24:36.431Z,56.00
2023-03-11T08:25:36.429Z,35.20
2023-03-11T08:26:36.414Z,48.10
2023-03-11T08:27:36.391Z,41.70
2023-03-11T08:28:36.414Z,45.80
2023-03-11T08:29:36.407Z,57.80
2023-03-11T08:30:36.365Z,36.00
2023-03-11T08:31:36.466Z,43.40
2023-03-11T08:32:36.363Z,47.50
2023-03-11T08:33:36.360Z,39.10
2023-03-11T08:34:36.327Z,65.80
2023-03-11T08:35:36.365Z,39.10
2023-03-11T08:36:36.313Z,44.10
2023-03-11T08:37:36.287Z,42.40
2023-03-11T08:38:36.436Z,44.60
2023-03-11T08:39:36.275Z,51.90
2023-03-11T08:40:36.271Z,60.40
2023-03-11T08:41:36.258Z,63.90
2023-03-11T08:42:37.189Z,61.90
2023-03-11T08:43:36.251Z,46.20
2023-03-11T08:44:36.229Z,49.90
2023-03-11T08:45:36.210Z,34.60
2023-03-11T08:46:36.272Z,55.00
2023-03-11T08:47:36.196Z,49.80
2023-03-11T08:48:36.249Z,45.60
2023-03-11T08:49:36.201Z,39.40
2023-03-11T08:50:47.332Z,49.40
2023-03-11T08:51:36.172Z,60.90
2023-03-11T08:52:36.176Z,47.40
2023-03-11T08:53:36.213Z,50.10
2023-03-11T08:54:36.132Z,45.10
2023-03-11T08:55:36.118Z,46.20
2023-03-11T08:56:36.133Z,40.00
2023-03-11T08:57:36.100Z,36.00
2023-03-11T08:58:36.121Z,64.10
2023-03-11T08:59:36.091Z,49.10
2023-03-11T09:00:36.081Z,58.90
2023-03-11T09:01:36.082Z,39.10
2023-03-11T09:02:36.084Z,43.70
2023-03-11T09:03:36.081Z,53.30
2023-03-11T09:04:36.066Z,48.80
2023-03-11T09:05:36.036Z,47.10
2023-03-11T09:06:36.026Z,47.30
2023-03-11T09:07:36.010Z,55.50
2023-03-11T09:08:36.038Z,48.90
2023-03-11T09:09:35.993Z,35.60
2023-03-11T09:10:35.984Z,35.20
2023-03-11T09:11:35.959Z,42.40
2023-03-11T09:12:35.973Z,44.00
2023-03-11T09:13:35.972Z,37.90
2023-03-11T09:14:37.204Z,31.20
2023-03-11T09:15:35.937Z,41.50
2023-03-11T09:16:35.961Z,45.30
2023-03-11T09:17:35.903Z,41.60
2023-03-11T09:18:35.915Z,39.50
2023-03-11T09:19:35.899Z,48.40
2023-03-11T09:20:35.885Z,39.00
2023-03-11T09:21:35.861Z,37.00
2023-03-11T09:22:35.872Z,36.80
2023-03-11T09:23:35.868Z,37.80
2023-03-11T09:24:35.886Z,33.50
2023-03-11T09:25:35.836Z,35.50
2023-03-11T09:26:35.809Z,43.00
2023-03-11T09:27:35.816Z,34.10
2023-03-11T09:28:35.819Z,38.00
2023-03-11T09:29:35.800Z,37.00
2023-03-11T09:30:35.825Z,33.50
2023-03-11T09:31:35.767Z,31.60
2023-03-11T09:32:35.846Z,31.20
2023-03-11T09:33:35.766Z,36.00
2023-03-11T09:34:35.738Z,32.90
2023-03-11T09:35:35.808Z,28.90
2023-03-11T09:36:35.722Z,31.80
2023-03-11T09:37:35.718Z,29.40
2023-03-11T09:38:35.714Z,30.80
2023-03-11T09:39:35.687Z,26.90
2023-03-11T09:40:35.683Z,28.60
2023-03-11T09:41:44.960Z,28.00
2023-03-11T09:42:35.667Z,24.50
2023-03-11T09:43:35.666Z,30.60
2023-03-11T09:44:35.648Z,25.20
2023-03-11T09:45:35.631Z,29.90
2023-03-11T09:46:35.678Z,27.70
2023-03-11T09:47:35.624Z,29.20
2023-03-11T09:48:35.621Z,29.60
2023-03-11T09:49:35.600Z,29.70
2023-03-11T09:50:35.597Z,30.10
2023-03-11T09:51:35.568Z,24.20
2023-03-11T09:52:35.556Z,23.70
2023-03-11T09:53:35.566Z,21.30
2023-03-11T09:54:35.531Z,26.20
2023-03-11T09:55:35.512Z,25.10
2023-03-11T09:56:35.503Z,28.00
2023-03-11T09:57:35.498Z,27.50
2023-03-11T09:58:35.501Z,22.70
2023-03-11T09:59:35.486Z,27.90
2023-03-11T10:00:35.485Z,19.10
2023-03-11T10:01:35.480Z,23.70
2023-03-11T10:02:35.498Z,24.50
2023-03-11T10:03:36.833Z,22.00
2023-03-11T10:04:35.479Z,21.40
2023-03-11T10:05:35.463Z,25.70
2023-03-11T10:06:35.406Z,23.10
2023-03-11T10:07:35.387Z,23.70
2023-03-11T10:08:35.420Z,20.20
2023-03-11T10:09:36.575Z,36.90
2023-03-11T10:10:35.381Z,19.90
2023-03-11T10:11:35.353Z,22.10
2023-03-11T10:12:35.346Z,19.20
2023-03-11T10:13:35.339Z,21.40
2023-03-11T10:14:35.372Z,18.00
2023-03-11T10:15:36.363Z,23.10
2023-03-11T10:16:35.308Z,23.70
2023-03-11T10:17:35.350Z,23.10
2023-03-11T10:18:35.299Z,20.90
2023-03-11T10:19:35.278Z,20.20
2023-03-11T10:20:35.273Z,17.50
2023-03-11T10:21:35.238Z,21.70
2023-03-11T10:22:35.239Z,18.70
2023-03-11T10:23:35.274Z,17.80
2023-03-11T10:24:35.215Z,21.60
2023-03-11T10:25:35.216Z,22.80
2023-03-11T10:26:35.224Z,18.70
2023-03-11T10:27:35.176Z,20.60
2023-03-11T10:28:35.223Z,15.90
2023-03-11T10:29:35.161Z,17.90
2023-03-11T10:30:35.156Z,20.40
2023-03-11T10:31:35.163Z,17.20
2023-03-11T10:32:35.179Z,16.80
2023-03-11T10:33:35.160Z,18.60
2023-03-11T10:34:35.133Z,16.10
2023-03-11T10:35:35.146Z,17.60
2023-03-11T10:36:35.290Z,17.30
2023-03-11T10:37:48.279Z,17.50
2023-03-11T10:38:35.299Z,23.10
2023-03-11T10:39:35.052Z,196.40
2023-03-11T10:40:35.057Z,17.40
2023-03-11T10:41:35.034Z,20.10
2023-03-11T10:42:35.027Z,21.90
2023-03-11T10:43:35.472Z,31.90
2023-03-11T10:44:35.030Z,19.70
2023-03-11T10:45:35.007Z,23.80
2023-03-11T10:46:35.029Z,24.30
2023-03-11T10:47:34.968Z,21.00
2023-03-11T10:48:35.091Z,27.20
2023-03-11T10:49:34.967Z,17.20
2023-03-11T10:50:36.486Z,54.80
2023-03-11T10:51:34.936Z,18.70
2023-03-11T10:52:35.046Z,27.30
2023-03-11T10:53:34.918Z,17.80
2023-03-11T10:54:34.903Z,22.40
2023-03-11T10:55:34.885Z,15.70
2023-03-11T10:56:34.877Z,17.80
2023-03-11T10:57:34.873Z,17.00
2023-03-11T10:58:34.866Z,20.70
2023-03-11T10:59:34.851Z,16.00
2023-03-11T11:00:34.834Z,14.50
2023-03-11T11:01:35.544Z,17.40
2023-03-11T11:02:34.824Z,16.10
2023-03-11T11:03:34.833Z,19.00
2023-03-11T11:04:34.846Z,13.40
2023-03-11T11:05:34.785Z,19.50
2023-03-11T11:06:34.872Z,19.80
2023-03-11T11:07:34.770Z,17.60
2023-03-11T11:08:34.799Z,19.60
2023-03-11T11:09:35.818Z,15.10
2023-03-11T11:10:35.469Z,13.50
2023-03-11T11:11:34.748Z,14.80
2023-03-11T11:12:34.735Z,13.40
2023-03-11T11:13:34.890Z,12.40
2023-03-11T11:14:34.731Z,10.90
2023-03-11T11:15:34.731Z,16.50
2023-03-11T11:16:34.759Z,13.30
2023-03-11T11:17:34.663Z,12.70
2023-03-11T11:18:34.652Z,14.80
2023-03-11T11:19:34.660Z,12.70
2023-03-11T11:20:34.687Z,16.60
2023-03-11T11:21:34.636Z,16.40
2023-03-11T11:22:34.634Z,15.60
2023-03-11T11:23:34.655Z,17.50
2023-03-11T11:24:34.637Z,14.60
2023-03-11T11:25:34.664Z,26.90
2023-03-11T11:26:34.618Z,17.00
2023-03-11T11:27:34.607Z,12.90
2023-03-11T11:28:34.553Z,14.40
2023-03-11T11:29:35.428Z,14.20
2023-03-11T11:30:34.587Z,18.70
2023-03-11T11:31:34.573Z,14.80
2023-03-11T11:32:34.540Z,15.80
2023-03-11T11:33:34.498Z,14.20
2023-03-11T11:34:34.515Z,16.90
2023-03-11T11:35:34.510Z,17.10
2023-03-11T11:36:34.475Z,16.30
2023-03-11T11:37:34.455Z,16.20
2023-03-11T11:38:34.444Z,13.40
2023-03-11T11:39:34.449Z,15.60
2023-03-11T11:40:34.438Z,13.50
2023-03-11T11:41:34.410Z,14.60
2023-03-11T11:42:34.408Z,12.70
2023-03-11T11:43:34.396Z,16.20
2023-03-11T11:44:34.409Z,12.80
2023-03-11T11:45:34.407Z,13.20
2023-03-11T11:46:34.419Z,11.90
2023-03-11T11:47:34.356Z,12.70
2023-03-11T11:48:34.340Z,13.50
2023-03-11T11:49:34.376Z,12.50
2023-03-11T11:50:34.315Z,14.00
2023-03-11T11:51:34.317Z,11.20
2023-03-11T11:52:34.322Z,13.80
2023-03-11T11:53:34.314Z,18.40
2023-03-11T11:54:34.321Z,10.00
2023-03-11T11:55:34.270Z,11.80
2023-03-11T11:56:34.248Z,13.20
2023-03-11T11:57:34.244Z,11.90
2023-03-11T11:58:34.233Z,13.30
2023-03-11T11:59:34.260Z,12.80
2023-03-11T12:00:34.225Z,14.00
2023-03-11T12:01:34.199Z,13.00
2023-03-11T12:02:34.196Z,12.50
2023-03-11T12:03:34.324Z,13.30
2023-03-11T12:04:34.321Z,11.70
2023-03-11T12:05:34.242Z,12.50
2023-03-11T12:06:34.230Z,10.80
2023-03-11T12:07:34.245Z,9.70
2023-03-11T12:08:34.180Z,13.50
2023-03-11T12:09:34.138Z,12.80
2023-03-11T12:10:34.185Z,13.10
2023-03-11T12:11:34.273Z,12.60
2023-03-11T12:12:34.173Z,11.70
2023-03-11T12:13:34.087Z,13.00
2023-03-11T12:14:34.136Z,12.30
2023-03-11T12:15:34.230Z,14.40
2023-03-11T12:16:34.039Z,10.90
2023-03-11T12:17:34.178Z,14.10
2023-03-11T12:18:34.040Z,11.80
2023-03-11T12:19:34.026Z,12.70
2023-03-11T12:20:33.998Z,14.60
2023-03-11T12:21:34.060Z,12.20
2023-03-11T12:22:33.979Z,11.20
2023-03-11T12:23:34.114Z,12.80
2023-03-11T12:24:33.968Z,13.20
2023-03-11T12:25:33.952Z,12.10
2023-03-11T12:26:33.934Z,11.50
2023-03-11T12:27:33.931Z,13.30
2023-03-11T12:28:33.951Z,14.70
2023-03-11T12:29:33.930Z,11.60
2023-03-11T12:30:33.900Z,13.00
2023-03-11T12:31:33.927Z,11.30
2023-03-11T12:32:33.944Z,11.10
2023-03-11T12:33:33.880Z,11.40
2023-03-11T12:34:33.887Z,12.60
2023-03-11T12:35:33.951Z,14.90
2023-03-11T12:36:33.841Z,14.80
2023-03-11T12:37:33.837Z,11.70
2023-03-11T12:38:33.822Z,13.10
2023-03-11T12:39:33.880Z,13.10
2023-03-11T12:40:33.813Z,13.70
2023-03-11T12:41:33.805Z,12.90
2023-03-11T12:42:33.773Z,12.10
2023-03-11T12:43:33.860Z,10.40
2023-03-11T12:44:33.765Z,10.50
2023-03-11T12:45:33.752Z,11.20
2023-03-11T12:46:33.762Z,10.60
2023-03-11T12:47:35.691Z,13.40
2023-03-11T12:48:33.729Z,13.50
2023-03-11T12:49:33.764Z,9.50